createdAt,value
2023-01-22T00:01:39.149Z,26.93
2023-01-22T00:07:43.904Z,29.67
2023-01-22T00:13:47.686Z,28.70
2023-01-22T00:19:51.138Z,33.23
2023-01-22T00:26:03.517Z,31.30
2023-01-22T00:32:07.313Z,29.90
2023-01-22T00:38:10.831Z,31.70
2023-01-22T00:44:15.671Z,30.20
2023-01-22T00:50:19.533Z,31.00
2023-01-22T00:56:23.108Z,25.50
2023-01-22T01:02:27.823Z,29.53
2023-01-22T01:08:32.319Z,32.47
2023-01-22T01:14:36.142Z,27.90
2023-01-22T01:20:40.941Z,28.10
2023-01-22T01:26:44.317Z,20.93
2023-01-22T01:32:47.687Z,21.40
2023-01-22T01:38:52.750Z,27.30
2023-01-22T01:45:14.881Z,33.63
2023-01-22T01:51:21.184Z,41.60
2023-01-22T01:57:28.400Z,30.57
2023-01-22T02:03:32.003Z,31.43
2023-01-22T02:09:35.474Z,32.30
2023-01-22T02:15:40.640Z,41.17
2023-01-22T02:21:46.116Z,36.93
2023-01-22T02:27:49.502Z,36.53
2023-01-22T02:33:53.652Z,36.43
2023-01-22T02:39:58.401Z,30.17
2023-01-22T02:46:02.067Z,27.17
2023-01-22T02:52:05.489Z,46.77
2023-01-22T02:58:10.440Z,34.10
2023-01-22T03:04:13.861Z,42.50
2023-01-22T03:10:18.511Z,42.27
2023-01-22T03:16:41.324Z,32.87
2023-01-22T03:22:44.992Z,32.10
2023-01-22T03:28:48.446Z,38.33
2023-01-22T03:34:53.970Z,33.57
2023-01-22T03:41:02.813Z,45.37
2023-01-22T03:47:06.233Z,44.93
2023-01-22T03:53:11.097Z,47.93
2023-01-22T03:59:14.570Z,53.40
2023-01-22T04:05:18.103Z,48.80
2023-01-22T04:11:23.146Z,51.63
2023-01-22T04:17:26.933Z,55.13
2023-01-22T04:23:30.453Z,49.03
2023-01-22T04:29:35.446Z,38.87
2023-01-22T04:35:39.392Z,52.40
2023-01-22T04:41:43.083Z,43.03
2023-01-22T04:47:49.090Z,36.17
2023-01-22T04:53:52.481Z,26.40
2023-01-22T04:59:55.857Z,30.10
2023-01-22T05:06:03.892Z,27.23
2023-01-22T05:12:07.700Z,25.70
2023-01-22T05:18:11.095Z,17.53
2023-01-22T05:24:16.372Z,18.80
2023-01-22T05:30:20.053Z,15.47
2023-01-22T05:36:23.651Z,11.93
2023-01-22T05:42:28.417Z,10.93
2023-01-22T05:48:33.520Z,10.17
2023-01-22T05:54:37.494Z,9.47
2023-01-22T06:00:42.261Z,10.93
2023-01-22T06:06:45.873Z,10.10
2023-01-22T06:12:49.345Z,10.30
2023-01-22T06:18:54.096Z,9.93
2023-01-22T06:24:57.468Z,12.10
2023-01-22T06:31:05.328Z,12.40
2023-01-22T06:37:10.505Z,10.37
2023-01-22T06:43:14.142Z,10.13
2023-01-22T06:49:17.550Z,9.60
2023-01-22T06:55:22.338Z,9.93
2023-01-22T07:01:26.466Z,10.27
2023-01-22T07:07:29.923Z,9.53
2023-01-22T07:13:34.997Z,12.20
2023-01-22T07:19:38.405Z,10.60
2023-01-22T07:25:42.075Z,15.93
2023-01-22T07:31:49.832Z,11.70
2023-01-22T07:37:53.760Z,12.03
2023-01-22T07:43:59.662Z,12.43
2023-01-22T07:50:04.445Z,12.10
2023-01-22T07:56:08.554Z,10.57
2023-01-22T08:02:13.851Z,13.17
2023-01-22T08:08:20.372Z,11.93
2023-01-22T08:14:23.819Z,13.40
2023-01-22T08:20:27.549Z,13.53
2023-01-22T08:26:32.568Z,14.83
2023-01-22T08:32:36.091Z,15.93
2023-01-22T08:38:39.995Z,14.48
2023-01-22T08:44:44.866Z,16.67
2023-01-22T08:50:48.345Z,14.30
2023-01-22T08:56:51.796Z,18.55
2023-01-22T09:03:00.186Z,17.97
2023-01-22T09:09:03.805Z,13.05
2023-01-22T09:15:07.916Z,16.03
2023-01-22T09:21:13.046Z,12.80
2023-01-22T09:27:16.495Z,15.73
2023-01-22T09:33:19.941Z,16.77
2023-01-22T09:39:24.899Z,16.95
2023-01-22T09:45:28.486Z,15.48
2023-01-22T09:51:32.012Z,13.82
2023-01-22T09:57:36.785Z,13.88
2023-01-22T10:03:43.453Z,13.35
2023-01-22T10:09:48.989Z,15.15
2023-01-22T10:15:54.485Z,16.85
2023-01-22T10:22:00.658Z,13.67
2023-01-22T10:28:04.289Z,11.60
2023-01-22T10:34:16.091Z,12.77
2023-01-22T10:40:24.276Z,11.77
2023-01-22T10:46:27.795Z,7.70
2023-01-22T10:52:36.828Z,9.38
2023-01-22T10:58:41.672Z,9.27
2023-01-22T11:04:45.120Z,7.80
2023-01-22T11:10:52.431Z,6.93
2023-01-22T11:16:58.677Z,7.18
2023-01-22T11:23:05.420Z,7.30
2023-01-22T11:29:13.517Z,9.13
2023-01-22T11:35:28.577Z,7.70
2023-01-22T11:41:38.880Z,8.07
2023-01-22T11:47:52.203Z,6.85
2023-01-22T11:54:04.165Z,7.15
2023-01-22T12:00:25.453Z,7.55
2023-01-22T12:06:41.094Z,6.57
2023-01-22T12:12:50.488Z,9.50
2023-01-22T12:19:14.765Z,7.03
2023-01-22T12:25:23.339Z,9.35
2023-01-22T12:31:28.673Z,7.30
2023-01-22T12:37:37.620Z,8.18
2023-01-22T12:43:48.668Z,7.78
2023-01-22T12:49:52.966Z,9.23
2023-01-22T12:56:00.222Z,9.20
2023-01-22T13:02:07.335Z,8.75
2023-01-22T13:08:24.958Z,8.98
2023-01-22T13:14:30.987Z,10.40
2023-01-22T13:20:38.258Z,6.90
2023-01-22T13:26:42.539Z,12.25
2023-01-22T13:32:46.083Z,8.48
2023-01-22T13:38:54.972Z,9.35
2023-01-22T13:44:58.661Z,8.32
2023-01-22T13:51:03.842Z,8.63
2023-01-22T13:57:09.016Z,6.70
2023-01-22T14:03:21.619Z,7.60
2023-01-22T14:09:29.223Z,5.82
2023-01-22T14:15:34.023Z,8.50
2023-01-22T14:21:37.540Z,8.07
2023-01-22T14:27:42.145Z,6.95
2023-01-22T14:33:47.135Z,10.20
2023-01-22T14:39:50.598Z,9.85
2023-01-22T14:45:55.216Z,8.82
2023-01-22T14:51:59.987Z,6.63
2023-01-22T14:58:03.889Z,8.25
2023-01-22T15:04:07.387Z,7.20
2023-01-22T15:10:13.463Z,8.85
2023-01-22T15:16:17.011Z,6.50
2023-01-22T15:22:20.657Z,8.70
2023-01-22T15:28:26.214Z,10.93
2023-01-22T15:34:29.598Z,6.65
2023-01-22T15:40:32.984Z,8.00
2023-01-22T15:46:39.028Z,7.00
2023-01-22T15:52:42.465Z,8.48
2023-01-22T15:58:45.888Z,6.95
2023-01-22T16:04:50.994Z,8.63
2023-01-22T16:10:54.556Z,8.13
2023-01-22T16:16:58.070Z,8.68
2023-01-22T16:23:04.196Z,9.98
2023-01-22T16:29:08.829Z,11.33
2023-01-22T16:35:12.453Z,9.20
2023-01-22T16:41:25.540Z,10.55
2023-01-22T16:47:29.120Z,36.92
2023-01-22T16:53:32.493Z,18.98
2023-01-22T16:59:40.411Z,13.20
2023-01-22T17:05:43.850Z,44.45
2023-01-22T17:11:47.503Z,10.27
2023-01-22T17:17:52.299Z,15.80
2023-01-22T17:23:55.825Z,13.68
2023-01-22T17:29:59.445Z,11.13
2023-01-22T17:36:05.195Z,12.07
2023-01-22T17:42:08.743Z,10.88
2023-01-22T17:48:12.173Z,9.93
2023-01-22T17:54:17.050Z,10.00
2023-01-22T18:00:21.254Z,10.55
2023-01-22T18:06:24.713Z,11.50
2023-01-22T18:12:29.537Z,11.07
2023-01-22T18:18:32.947Z,15.75
2023-01-22T18:24:36.792Z,8.80
2023-01-22T18:30:42.277Z,9.75
2023-01-22T18:36:45.815Z,7.00
2023-01-22T18:42:50.168Z,9.27
2023-01-22T18:48:56.155Z,11.13
2023-01-22T18:54:59.570Z,11.50
2023-01-22T19:01:09.933Z,15.00
2023-01-22T19:07:14.823Z,13.20
2023-01-22T19:13:20.829Z,14.20
2023-01-22T19:19:24.788Z,13.82
2023-01-22T19:25:29.553Z,14.40
2023-01-22T19:31:34.019Z,16.90
2023-01-22T19:37:37.620Z,16.00
2023-01-22T19:43:42.974Z,20.17
2023-01-22T19:49:46.436Z,20.30
2023-01-22T19:55:49.983Z,19.33
2023-01-22T20:01:55.144Z,16.88
2023-01-22T20:07:59.183Z,17.73
2023-01-22T20:14:03.465Z,17.33
2023-01-22T20:20:09.245Z,17.67
2023-01-22T20:26:12.916Z,15.75
2023-01-22T20:32:16.421Z,17.63
2023-01-22T20:38:21.341Z,20.08
2023-01-22T20:44:24.775Z,20.63
2023-01-22T20:50:28.237Z,19.67
2023-01-22T20:56:34.243Z,23.20
2023-01-22T21:02:37.654Z,22.15
2023-01-22T21:08:41.929Z,21.55
2023-01-22T21:14:47.019Z,19.38
2023-01-22T21:20:50.825Z,22.90
2023-01-22T21:26:54.231Z,19.90
2023-01-22T21:32:59.408Z,22.38
2023-01-22T21:39:03.478Z,20.85
2023-01-22T21:45:25.269Z,20.92
2023-01-22T21:51:30.727Z,21.45
2023-01-22T21:57:34.115Z,21.00
2023-01-22T22:03:37.757Z,22.70
2023-01-22T22:09:44.270Z,21.90
2023-01-22T22:15:48.000Z,19.95
2023-01-22T22:21:51.734Z,22.38
2023-01-22T22:27:58.183Z,20.23
2023-01-22T22:34:02.283Z,20.90
2023-01-22T22:40:05.920Z,23.50
2023-01-22T22:46:13.826Z,20.92
2023-01-22T22:52:17.314Z,21.75
2023-01-22T22:58:21.296Z,24.00
2023-01-22T23:04:26.240Z,27.13
2023-01-22T23:10:29.894Z,24.42
2023-01-22T23:16:34.746Z,22.35
2023-01-22T23:22:39.545Z,25.48
2023-01-22T23:28:42.931Z,23.48
2023-01-22T23:34:46.644Z,22.20
2023-01-22T23:40:59.090Z,22.83
2023-01-22T23:47:02.500Z,23.60
2023-01-22T23:53:06.062Z,25.98
2023-01-22T23:59:10.995Z,26.02
